Strona główna
METAR-TAF:

METAR-TAF

Lotnisko :

RAF

Spadeadam, Anglia

Szerokość geograficzna: 55-03N, Długość geograficzna: 002-33W, wysokość: 325 m

Aktualna obserwacja pogody

Raport powstał 39 minut temu, godzina 02:50 UTC
Wiatr 7 kt od południowy zachód
Temperatura 5°C
Wilgotność 100%
Ciśnienie 1014 hPa
Widzialność: 5000 m
zamglenie

METAR: EGOM 040250Z AUTO 23007KT 5000 BR BKN002/// SCT009/// BKN012/// 05/05 Q1014

czas: 04:29 (03:29 UTC)


TAF: brakujący

Obserwacja i prognoza pogody dla ponad 4000 lotnisk (raport METAR i TAF).

Dostępne stacje oznaczono żółtymi i czerwonymi punktami na mapie.

Najedź kursorem aby zobaczyć nazwę stacji.

Kliknij aby zobaczyć obserwacje i prognozy pogody.

Aby zmienić mapę: kliknij na zielony przycisk z czarnym krzyżykiem, aby powiększyć; na zielony przycisk z myślnikiem, aby pomniejszyć; na zielone strzałki, aby przejść do map sąsiednich.


METAR-TAF: